KTRK

Details ICAO KTRK (TKF)
Name Truckee Tahoe
Region United States
Timezone America/Los_Angeles (UTC-8.0)
Plans Departing 22
Arriving 36
Stats Elevation 5,900 ft / 1,798 m (AMSL)
Location 39.320042° -120.138942°
Runways 2
Magnetic Variation 13.438° E
Sunrise 2017-12-16 15:15:30 UTC / 2017-12-16 07:15:30 Local
Sunset 2017-12-17 00:39:57 UTC / 2017-12-16 16:39:57 Local
Advertisement - Login to hide

Runways

ID Width Length Bearing (true) Bearing (mag) Surface Threshold Offset Overrun Length
01 75 ft / 23 m 4,653 ft / 1,418 m 29.88° 16.44° Asphalt 0 ft / 0 m 0 ft / 0 m
10 100 ft / 30 m 6,990 ft / 2,131 m 120.08° 106.64° Asphalt 0 ft / 0 m 0 ft / 0 m
19 75 ft / 23 m 4,653 ft / 1,418 m 209.88° 196.44° Asphalt 115 ft / 35 m 0 ft / 0 m
28 100 ft / 30 m 6,990 ft / 2,131 m 300.09° 286.65° Asphalt 0 ft / 0 m 0 ft / 0 m

Map

Weather


0- 5 10 15 20 25 30 35+ Temperature / ° C

Clouds and Precipitation
Forecast for 2017-12-17 00:00 UTC. Updated an hour ago

Ground ~20,000 ft ~40,000 ft Winds

METAR

KTRK 162345Z 02016G24KT 10SM FEW040 M02/M11 A3004

TAF

TAF KTRK 162320Z 1700/1724 01012G22KT P6SM FEW030 FM170300 04006KT P6SM FEW200

Frequencies

Recorded 118.00 MHz AWOS 3
Unicom 122.80 MHz CTAF/UNICOM
Warning: Do not use this data for real-world aviation or navigation. No guarantee of current accuracy is given.